Time;durP1;ratioP1;P1;durP2;ratioP2;P2;SDS_P1;SDS_P2;PMS_P1;PMS_P2;Temp;Humidity;BMP_temperature;BMP_pressure;BME280_temperature;BME280_humidity;BME280_pressure;Samples;Min_cycle;Max_cycle;Signal;HPM_P1;HPM_P2
2022/06/01 00:00:15;;;;;;;9.30;7.73;;;;;;;18.47;100.00;99166.41;5051860;28;20614;-87
2022/06/01 00:02:41;;;;;;;11.27;7.60;;;;;;;17.32;100.00;98950.22;5050093;28;20184;-87
2022/06/01 00:05:07;;;;;;;10.23;7.30;;;;;;;17.35;100.00;98989.50;5050107;28;20169;-87
2022/06/01 00:07:33;;;;;;;13.03;7.37;;;;;;;17.22;100.00;98991.91;5051708;28;20280;-86
2022/06/01 00:09:59;;;;;;;11.53;7.60;;;;;;;17.86;100.00;99057.41;5050158;28;20228;-86
2022/06/01 00:12:24;;;;;;;9.07;7.10;;;;;;;17.37;100.00;98981.81;5050747;28;20174;-86
2022/06/01 00:14:50;;;;;;;9.70;7.80;;;;;;;18.58;100.00;99170.84;5051469;28;20169;-86
2022/06/01 00:17:16;;;;;;;10.33;7.37;;;;;;;19.35;100.00;99289.44;5050952;28;20192;-86
2022/06/01 00:19:42;;;;;;;9.03;7.23;;;;;;;19.32;100.00;99316.78;5052308;28;20540;-86
2022/06/01 00:22:14;;;;;;;14.17;7.53;;;;;;;16.89;100.00;98859.44;5053607;28;20169;-85
2022/06/01 00:24:41;;;;;;;11.07;7.80;;;;;;;17.10;100.00;98909.09;5053513;28;20211;-86
2022/06/01 00:27:07;;;;;;;11.13;7.67;;;;;;;16.95;100.00;98893.56;5055070;28;20254;-86
2022/06/01 00:29:33;;;;;;;9.87;7.80;;;;;;;16.16;100.00;98753.84;5054377;28;20185;-86
2022/06/01 00:31:59;;;;;;;8.83;7.50;;;;;;;17.06;100.00;98899.66;5053872;28;20629;-86
2022/06/01 00:34:24;;;;;;;10.53;7.47;;;;;;;18.58;100.00;99190.47;5054836;28;20165;-85
2022/06/01 00:36:49;;;;;;;11.40;7.70;;;;;;;17.20;100.00;98950.09;5079489;28;20181;-85
2022/06/01 00:39:15;;;;;;;12.30;7.77;;;;;;;16.58;100.00;98901.69;5080537;28;20149;-85
2022/06/01 00:41:40;;;;;;;9.67;7.87;;;;;;;17.36;100.00;99038.97;5063103;28;20178;-86
2022/06/01 00:44:06;;;;;;;12.20;7.67;;;;;;;17.46;100.00;99051.03;5054216;28;20665;-85
2022/06/01 00:46:32;;;;;;;9.90;7.20;;;;;;;16.08;100.00;98806.53;5054341;28;20177;-86
2022/06/01 00:49:04;;;;;;;10.67;7.43;;;;;;;17.42;100.00;99003.19;5053601;28;20170;-86
2022/06/01 00:51:29;;;;;;;12.33;7.33;;;;;;;17.20;100.00;98985.91;5054961;28;20173;-86
2022/06/01 00:53:56;;;;;;;10.53;7.13;;;;;;;16.97;100.00;98940.50;5054089;28;20217;-86
2022/06/01 00:56:27;;;;;;;10.97;7.20;;;;;;;16.32;100.00;98870.69;5054323;28;20170;-85
2022/06/01 00:58:56;;;;;;;9.40;6.90;;;;;;;18.72;100.00;99276.09;5054130;28;20170;-85
2022/06/01 01:01:21;;;;;;;10.33;7.07;;;;;;;15.82;100.00;98816.41;5053899;28;20634;-86
2022/06/01 01:03:58;;;;;;;11.37;7.53;;;;;;;17.98;100.00;99211.22;5054294;28;20197;-86
2022/06/01 01:06:29;;;;;;;12.67;7.30;;;;;;;16.38;100.00;98949.09;5054404;28;20248;-85
2022/06/01 01:08:55;;;;;;;9.97;7.40;;;;;;;18.32;100.00;99279.06;5054199;28;20169;-86
2022/06/01 01:11:36;;;;;;;10.30;7.00;;;;;;;15.32;100.00;98796.94;5052908;28;20626;-85
2022/06/01 01:14:06;;;;;;;10.30;7.00;;;;;;;15.72;100.00;98852.84;5054962;28;20173;-85
2022/06/01 01:16:32;;;;;;;10.47;7.00;;;;;;;17.58;100.00;99182.56;5054269;28;20172;-85
2022/06/01 01:18:59;;;;;;;10.50;7.60;;;;;;;15.85;100.00;98866.63;5052630;28;20177;-85
2022/06/01 01:21:39;;;;;;;9.03;6.67;;;;;;;16.55;100.00;98987.69;5072957;28;20162;-85
2022/06/01 01:24:23;;;;;;;11.37;7.33;;;;;;;16.72;100.00;99029.66;5055281;28;20283;-85
2022/06/01 01:26:51;;;;;;;11.87;6.93;;;;;;;16.91;100.00;99049.50;5053581;28;20169;-86
2022/06/01 01:29:34;;;;;;;9.40;6.60;;;;;;;16.42;100.00;98945.75;5053556;28;20180;-86
2022/06/01 01:32:00;;;;;;;11.00;7.07;;;;;;;17.26;100.00;99149.72;5050821;28;20638;-87
2022/06/01 01:34:26;;;;;;;8.87;6.47;;;;;;;18.06;100.00;99266.81;5052185;28;20646;-86
2022/06/01 01:36:57;;;;;;;9.27;5.80;;;;;;;17.59;100.00;99209.03;5053217;28;20240;-86
2022/06/01 01:39:25;;;;;;;10.83;6.20;;;;;;;16.09;100.00;98960.63;5053942;28;20177;-86
2022/06/01 01:41:52;;;;;;;9.53;6.50;;;;;;;17.90;100.00;99257.25;5054935;28;20173;-86
2022/06/01 01:44:32;;;;;;;9.70;6.57;;;;;;;17.48;100.00;99192.66;5051898;28;20227;-86
2022/06/01 01:46:58;;;;;;;10.30;6.63;;;;;;;17.41;100.00;99185.75;5052221;28;20604;-86
2022/06/01 01:49:38;;;;;;;9.73;6.80;;;;;;;17.83;100.00;99255.44;5052728;28;20519;-86
2022/06/01 01:52:07;;;;;;;10.77;6.90;;;;;;;16.23;100.00;98966.78;5054373;28;20221;-85
2022/06/01 01:54:54;;;;;;;11.00;6.90;;;;;;;17.89;100.00;99252.94;5053005;28;20173;-86
2022/06/01 01:57:57;;;;;;;14.90;6.97;;;;;;;17.85;100.00;99248.66;5054428;28;20173;-86
2022/06/01 02:00:30;;;;;;;10.90;6.70;;;;;;;17.79;100.00;99256.25;5054012;28;20166;-86
2022/06/01 02:03:15;;;;;;;8.27;6.43;;;;;;;17.87;100.00;99254.66;5053306;28;20189;-84
2022/06/01 02:06:14;;;;;;;10.57;6.90;;;;;;;17.32;100.00;99160.03;5053470;28;20882;-85
2022/06/01 02:08:53;;;;;;;12.40;7.27;;;;;;;17.80;100.00;99242.59;4972383;28;20195;-86
2022/06/01 02:14:36;;;;;;;11.20;6.57;;;;;;;16.58;100.00;99047.38;4972618;28;20230;-85
2022/06/01 02:17:06;;;;;;;11.20;6.47;;;;;;;17.78;100.00;99253.66;4972076;28;20177;-86
2022/06/01 02:19:42;;;;;;;10.83;6.97;;;;;;;17.80;100.00;99246.88;4972618;28;20196;-85
2022/06/01 02:22:10;;;;;;;11.50;6.83;;;;;;;17.67;100.00;99256.09;4956470;28;20190;-85
2022/06/01 02:24:37;;;;;;;10.00;6.60;;;;;;;17.43;100.00;99251.47;4971927;28;20266;-85
2022/06/01 02:27:03;;;;;;;10.20;6.67;;;;;;;16.64;100.00;99126.69;4972245;28;20290;-86
2022/06/01 02:29:36;;;;;;;11.47;6.50;;;;;;;17.32;100.00;99249.59;4956877;28;20239;-85
2022/06/01 02:32:04;;;;;;;9.93;6.93;;;;;;;16.60;100.00;99147.06;4973609;28;20250;-86
2022/06/01 02:34:30;;;;;;;11.13;6.57;;;;;;;17.28;100.00;99235.06;4972377;28;20172;-85
2022/06/01 02:36:58;;;;;;;12.13;6.80;;;;;;;16.85;100.00;99139.78;4971889;28;20176;-84
2022/06/01 02:39:25;;;;;;;12.43;6.70;;;;;;;17.19;100.00;99210.19;4971746;28;20192;-87
2022/06/01 02:44:35;;;;;;;14.30;8.00;;;;;;;17.71;100.00;99262.97;4983231;28;20339;-86
2022/06/01 02:47:00;;;;;;;12.07;7.77;;;;;;;16.89;100.00;99121.06;5052130;28;20169;-85
2022/06/01 02:49:26;;;;;;;15.87;7.93;;;;;;;17.83;100.00;99273.34;5052462;28;20209;-85
2022/06/01 02:51:52;;;;;;;15.37;8.50;;;;;;;17.98;100.00;99270.13;5055884;28;20173;-86
2022/06/01 02:54:17;;;;;;;12.40;8.00;;;;;;;17.25;100.00;99158.25;5053147;28;20240;-86
2022/06/01 02:56:43;;;;;;;18.60;8.90;;;;;;;15.79;100.00;98897.19;5062583;28;20165;-86
2022/06/01 02:59:08;;;;;;;18.13;8.80;;;;;;;15.29;100.00;98815.63;5076826;28;20177;-85
2022/06/01 03:01:36;;;;;;;20.47;10.17;;;;;;;17.56;100.00;99217.53;5131600;23;20255;-85
2022/06/01 03:04:02;;;;;;;16.73;8.50;;;;;;;16.07;100.00;99000.59;5052204;28;20200;-85
2022/06/01 03:06:27;;;;;;;15.17;8.63;;;;;;;15.38;100.00;98882.06;5052321;28;20161;-86
2022/06/01 03:08:53;;;;;;;11.50;7.47;;;;;;;16.47;100.00;99143.41;5052331;28;20630;-85
2022/06/01 03:11:18;;;;;;;12.77;7.57;;;;;;;16.92;100.00;99214.91;5051781;28;20166;-86
2022/06/01 03:13:43;;;;;;;16.57;8.03;;;;;;;15.57;100.00;98939.41;5052372;28;20260;-84
2022/06/01 03:16:09;;;;;;;12.30;7.30;;;;;;;16.83;100.00;99138.91;5052282;28;20719;-85
2022/06/01 03:18:35;;;;;;;12.50;7.23;;;;;;;16.40;100.00;99090.47;5051832;28;20172;-86
2022/06/01 03:21:00;;;;;;;11.73;7.60;;;;;;;16.34;100.00;99096.34;5033983;28;20626;-86
2022/06/01 03:23:27;;;;;;;10.40;7.67;;;;;;;17.19;100.00;99240.91;5052029;28;20197;-86
2022/06/01 03:25:52;;;;;;;12.03;7.27;;;;;;;14.58;100.00;98827.16;5051578;28;20169;-86
2022/06/01 03:28:18;;;;;;;13.90;7.50;;;;;;;16.40;100.00;99141.59;5051661;28;20177;-85
2022/06/01 03:30:45;;;;;;;10.80;7.47;;;;;;;15.76;100.00;98977.13;5051793;28;20244;-86
2022/06/01 03:33:13;;;;;;;13.23;8.40;;;;;;;17.74;100.00;99274.97;5052060;28;20634;-86
2022/06/01 03:35:39;;;;;;;11.07;8.00;;;;;;;17.73;100.00;99281.78;5034022;28;20184;-86
2022/06/01 03:38:06;;;;;;;11.07;7.63;;;;;;;15.50;100.00;98937.56;5051942;28;20273;-87
2022/06/01 03:40:32;;;;;;;14.63;8.17;;;;;;;16.80;100.00;99161.88;5052685;28;20542;-85
2022/06/01 03:42:58;;;;;;;10.93;8.03;;;;;;;17.08;100.00;99227.91;5053253;28;20649;-85
2022/06/01 03:48:09;;;;;;;16.37;8.50;;;;;;;17.20;100.00;99226.38;5053449;28;20204;-85
2022/06/01 03:50:35;;;;;;;10.90;7.93;;;;;;;16.83;100.00;99149.13;5034888;28;20678;-85
2022/06/01 03:53:02;;;;;;;15.03;8.07;;;;;;;17.03;100.00;99178.41;5053109;28;20664;-85
2022/06/01 03:55:28;;;;;;;20.20;8.03;;;;;;;17.10;100.00;99153.78;5038918;28;20180;-86
2022/06/01 03:57:54;;;;;;;15.33;8.20;;;;;;;17.92;100.00;99278.59;5057936;28;20256;-84
2022/06/01 04:00:22;;;;;;;12.40;8.03;;;;;;;16.52;100.00;99083.03;5038656;28;20717;-87
2022/06/01 04:02:48;;;;;;;10.33;7.40;;;;;;;17.70;100.00;99215.16;5056258;28;20655;-84
2022/06/01 04:05:14;;;;;;;13.43;7.80;;;;;;;16.91;100.00;99023.94;5056152;28;20174;-87
2022/06/01 04:07:39;;;;;;;11.20;7.30;;;;;;;18.07;100.00;99276.25;5037321;28;20181;-86
2022/06/01 04:10:05;;;;;;;12.60;7.40;;;;;;;17.71;100.00;99164.81;5037489;28;20546;-86
2022/06/01 04:12:30;;;;;;;16.63;7.90;;;;;;;16.87;100.00;99019.63;5054872;28;20200;-85
2022/06/01 04:14:56;;;;;;;15.57;8.47;;;;;;;17.74;100.00;99158.03;5055131;28;20170;-86
2022/06/01 04:17:21;;;;;;;12.23;7.43;;;;;;;16.32;100.00;98919.22;5055314;28;20172;-85
2022/06/01 04:19:47;;;;;;;13.37;7.70;;;;;;;16.83;100.00;98970.16;5056117;28;20632;-86
2022/06/01 04:22:14;;;;;;;13.73;7.70;;;;;;;18.91;100.00;99307.88;5055789;28;20166;-85
2022/06/01 04:24:40;;;;;;;11.83;7.80;;;;;;;18.52;98.77;99203.25;5056372;28;20201;-86
2022/06/01 04:27:07;;;;;;;13.23;8.33;;;;;;;18.10;96.46;99089.22;5038129;28;20196;-85
2022/06/01 04:29:33;;;;;;;15.07;7.60;;;;;;;19.59;93.63;99293.88;5059266;28;20161;-86
2022/06/01 04:32:03;;;;;;;13.00;7.70;;;;;;;17.19;91.01;98876.75;5056071;28;20165;-86
2022/06/01 04:34:29;;;;;;;15.33;7.60;;;;;;;18.39;89.91;99060.41;5055131;28;20233;-85
2022/06/01 04:36:54;;;;;;;13.80;7.73;;;;;;;19.00;97.39;99308.84;5054973;28;20157;-86
2022/06/01 04:39:22;;;;;;;11.43;7.93;;;;;;;18.88;97.46;99244.59;5038682;28;20200;-87
2022/06/01 04:41:47;;;;;;;14.67;8.00;;;;;;;18.15;94.61;99079.91;5056731;28;20173;-85
2022/06/01 04:44:12;;;;;;;10.83;7.63;;;;;;;18.41;96.17;99146.72;5055955;28;20189;-86
2022/06/01 04:46:38;;;;;;;13.63;7.70;;;;;;;19.18;95.11;99257.66;5037165;28;20178;-86
2022/06/01 04:49:03;;;;;;;11.23;7.83;;;;;;;19.09;92.70;99195.16;5054823;28;20648;-86
2022/06/01 04:51:29;;;;;;;11.53;7.90;;;;;;;19.40;91.55;99256.97;5054897;28;20165;-85
2022/06/01 04:53:54;;;;;;;15.63;7.77;;;;;;;19.88;92.73;99304.34;5054523;28;20165;-85
2022/06/01 04:56:20;;;;;;;12.80;7.47;;;;;;;18.05;91.36;99008.91;5039432;28;20170;-87
2022/06/01 04:58:45;;;;;;;13.33;8.17;;;;;;;18.24;95.53;99071.41;5037105;28;20183;-86
2022/06/01 05:01:11;;;;;;;15.00;7.60;;;;;;;18.40;94.59;99115.97;5054554;28;20670;-86
2022/06/01 05:03:36;;;;;;;12.83;7.67;;;;;;;17.97;95.32;99015.69;5036191;28;20212;-86
2022/06/01 05:06:02;;;;;;;10.20;7.43;;;;;;;19.98;93.24;99321.50;5035809;28;20170;-87
2022/06/01 05:08:27;;;;;;;12.03;7.97;;;;;;;18.77;93.89;99115.41;5053796;28;20172;-86
2022/06/01 05:10:53;;;;;;;11.30;7.73;;;;;;;20.21;89.46;99237.66;5035822;28;20170;-86
2022/06/01 05:13:19;;;;;;;12.03;7.53;;;;;;;18.77;86.98;98976.91;5054130;28;20244;-86
2022/06/01 05:15:50;;;;;;;11.70;7.33;;;;;;;20.49;85.63;99252.28;5054159;28;20226;-86
2022/06/01 05:18:16;;;;;;;9.10;6.60;;;;;;;21.06;85.91;99338.13;5044820;28;20246;-86
2022/06/01 05:20:42;;;;;;;11.07;6.40;;;;;;;20.77;86.15;99330.38;5077956;28;20170;-84
2022/06/01 05:23:07;;;;;;;8.97;5.57;;;;;;;18.54;85.53;98945.19;5076849;28;20208;-85
2022/06/01 05:25:33;;;;;;;9.07;5.93;;;;;;;18.14;85.51;98875.75;5057241;28;20165;-86
2022/06/01 05:27:58;;;;;;;8.37;5.53;;;;;;;19.66;82.37;99073.91;5054396;28;20216;-87
2022/06/01 05:30:24;;;;;;;10.47;6.63;;;;;;;18.63;80.05;98845.22;5061030;28;20212;-87
2022/06/01 05:32:49;;;;;;;8.20;5.90;;;;;;;19.81;76.78;99043.94;5040379;28;20166;-87
2022/06/01 05:35:15;;;;;;;7.77;5.30;;;;;;;20.41;78.61;99138.25;5055497;28;20677;-86
2022/06/01 05:37:40;;;;;;;9.27;5.30;;;;;;;20.24;77.56;99086.00;5022441;28;20229;-87
2022/06/01 05:40:06;;;;;;;10.53;5.67;;;;;;;20.31;79.54;99135.69;5035885;28;20185;-86
2022/06/01 05:42:32;;;;;;;7.67;5.57;;;;;;;21.09;80.37;99253.22;5053713;28;20704;-87
2022/06/01 05:44:57;;;;;;;10.57;5.63;;;;;;;20.88;80.06;99218.00;5034873;28;20205;-85
2022/06/01 05:47:23;;;;;;;8.93;5.80;;;;;;;19.55;77.38;98944.63;5035537;28;20177;-84
2022/06/01 05:49:49;;;;;;;7.60;5.60;;;;;;;19.47;77.30;98889.84;5052804;28;20185;-84
2022/06/01 05:52:18;;;;;;;9.77;5.97;;;;;;;22.37;75.23;99324.19;5053740;28;20626;-85
2022/06/01 05:54:47;;;;;;;9.20;5.90;;;;;;;22.31;75.28;99327.63;5054781;28;20172;-85
2022/06/01 05:57:13;;;;;;;8.90;6.27;;;;;;;20.72;76.46;99076.50;5035589;28;20177;-85
2022/06/01 05:59:39;;;;;;;7.90;5.73;;;;;;;22.58;74.93;99341.28;5053279;28;20248;-84
2022/06/01 06:02:06;;;;;;;7.13;5.47;;;;;;;20.04;71.78;98964.31;5053149;28;20170;-86
2022/06/01 06:04:31;;;;;;;10.63;5.87;;;;;;;22.20;74.20;99344.88;5053078;28;20224;-85
2022/06/01 06:06:57;;;;;;;10.07;6.00;;;;;;;21.01;73.53;99126.22;5053165;28;20184;-85
2022/06/01 06:09:24;;;;;;;7.50;5.87;;;;;;;21.05;72.93;99125.31;5035107;28;20204;-85
2022/06/01 06:11:51;;;;;;;9.60;5.83;;;;;;;21.04;74.61;99121.06;5053270;28;20948;-85
2022/06/01 06:14:17;;;;;;;7.00;5.87;;;;;;;21.82;71.89;99227.25;5053164;28;20165;-85
2022/06/01 06:16:44;;;;;;;10.87;6.20;;;;;;;20.55;71.63;98971.94;5052958;28;20227;-85
2022/06/01 06:19:11;;;;;;;10.23;6.10;;;;;;;21.83;70.36;99133.63;5034161;28;20173;-85
2022/06/01 06:21:37;;;;;;;10.30;5.80;;;;;;;23.34;67.75;99341.63;5052706;28;20166;-85
2022/06/01 06:24:11;;;;;;;10.37;5.90;;;;;;;22.38;64.15;99088.56;5052881;28;20272;-84
2022/06/01 06:26:39;;;;;;;10.10;5.90;;;;;;;24.11;63.07;99348.69;5052954;28;20191;-85
2022/06/01 06:29:08;;;;;;;9.53;6.10;;;;;;;23.54;63.21;99235.53;5052493;28;20554;-86
2022/06/01 06:31:34;;;;;;;10.00;6.07;;;;;;;23.51;64.15;99339.78;5052744;28;20520;-85
2022/06/01 06:34:00;;;;;;;11.87;6.37;;;;;;;22.89;64.57;99232.66;5034615;28;20264;-85
2022/06/01 06:36:25;;;;;;;9.10;5.70;;;;;;;23.38;65.11;99327.84;5025214;28;20169;-84
2022/06/01 06:38:51;;;;;;;9.40;6.00;;;;;;;22.78;65.66;99233.63;5034430;28;20181;-85
2022/06/01 06:41:17;;;;;;;11.93;5.90;;;;;;;23.70;62.85;99320.66;5034651;28;20184;-86
2022/06/01 06:43:42;;;;;;;12.53;6.20;;;;;;;23.75;62.22;99308.53;5052840;28;20193;-85
2022/06/01 06:46:11;;;;;;;9.90;5.97;;;;;;;24.04;63.27;99332.31;5034676;28;20177;-86
2022/06/01 06:48:38;;;;;;;7.33;6.43;;;;;;;21.01;60.43;98746.09;5052032;28;20188;-86
2022/06/01 06:51:04;;;;;;;10.27;6.50;;;;;;;22.32;61.42;99025.00;5052113;28;20172;-86
2022/06/01 06:53:30;;;;;;;11.00;6.47;;;;;;;22.07;61.30;98942.72;5052765;28;20187;-86
2022/06/01 06:55:56;;;;;;;10.57;6.17;;;;;;;22.59;58.97;98959.34;5052674;28;20165;-85
2022/06/01 06:58:22;;;;;;;7.10;5.90;;;;;;;24.72;58.49;99317.69;5052022;28;20176;-85
2022/06/01 07:00:48;;;;;;;9.73;5.97;;;;;;;24.92;58.35;99315.66;5064323;28;20228;-87
2022/06/01 07:03:14;;;;;;;9.83;5.97;;;;;;;25.21;56.68;99323.84;5072236;28;20224;-86
2022/06/01 07:08:25;;;;;;;8.47;5.80;;;;;;;24.87;57.18;99309.69;5067066;28;20203;-86
2022/06/01 07:10:51;;;;;;;8.67;5.63;;;;;;;24.26;54.18;99156.16;5033798;28;20561;-86
2022/06/01 07:13:16;;;;;;;7.43;5.63;;;;;;;24.03;55.61;99179.75;5057550;28;20233;-84
2022/06/01 07:15:42;;;;;;;7.43;5.70;;;;;;;24.92;55.21;99273.34;5056485;28;20200;-86
2022/06/01 07:18:08;;;;;;;9.67;6.00;;;;;;;25.19;53.49;99312.63;5056460;28;20592;-85
2022/06/01 07:20:33;;;;;;;10.07;5.80;;;;;;;23.91;55.43;99136.81;5053896;28;20256;-87
2022/06/01 07:22:59;;;;;;;8.00;6.00;;;;;;;25.27;54.79;99316.84;5052928;28;20619;-86
2022/06/01 07:25:25;;;;;;;8.57;5.60;;;;;;;23.92;54.30;99089.38;5052927;28;20181;-86
2022/06/01 07:27:51;;;;;;;9.57;5.87;;;;;;;24.79;53.71;99192.44;5053028;28;20256;-86
2022/06/01 07:30:17;;;;;;;9.00;5.40;;;;;;;25.89;51.83;99318.31;5058210;28;20220;-87
2022/06/01 07:32:47;;;;;;;8.30;5.83;;;;;;;25.30;51.02;99171.66;5058336;28;20169;-86
2022/06/01 07:35:13;;;;;;;8.30;5.50;;;;;;;25.39;50.60;99141.22;5058612;28;20165;-86
2022/06/01 07:43:08;;;;;;;6.68;5.25;;;;;;;26.10;47.55;99189.00;5076262;22;20265;-86
2022/06/01 07:45:35;;;;;;;7.78;5.22;;;;;;;26.62;47.97;99323.72;5049497;28;20647;-85
2022/06/01 07:48:03;;;;;;;6.85;5.80;;;;;;;26.24;49.95;99318.50;5039235;28;20536;-84
2022/06/01 07:50:29;;;;;;;8.25;5.90;;;;;;;25.30;50.29;99161.28;5039303;28;20255;-85
2022/06/01 07:52:54;;;;;;;8.57;5.40;;;;;;;25.29;49.89;99128.47;5020652;28;20202;-85
2022/06/01 07:55:19;;;;;;;8.18;5.50;;;;;;;25.90;48.67;99170.44;5038731;28;20160;-86
2022/06/01 07:57:45;;;;;;;7.38;5.70;;;;;;;26.45;48.18;99221.13;5038804;28;20170;-88
2022/06/01 08:00:11;;;;;;;6.22;5.40;;;;;;;26.75;48.18;99241.19;5037517;28;20195;-86
2022/06/01 08:02:38;;;;;;;7.75;5.57;;;;;;;25.70;48.01;99017.84;5037786;28;20195;-85
2022/06/01 08:05:05;;;;;;;6.70;5.30;;;;;;;27.00;48.33;99285.66;5039252;28;20207;-84
2022/06/01 08:07:31;;;;;;;9.27;5.55;;;;;;;26.52;47.28;99155.16;5039704;28;20165;-86
2022/06/01 08:09:56;;;;;;;8.07;5.70;;;;;;;25.85;46.66;98995.88;5039740;28;20186;-86
2022/06/01 08:15:06;;;;;;;9.05;5.63;;;;;;;27.29;45.63;99128.03;5036593;28;20176;-86
2022/06/01 08:17:31;;;;;;;6.63;5.38;;;;;;;27.91;44.64;99164.38;5019121;28;20781;-87
2022/06/01 08:19:57;;;;;;;9.30;5.50;;;;;;;28.14;44.88;99228.81;5037068;28;20166;-86
2022/06/01 08:22:22;;;;;;;8.50;5.68;;;;;;;28.76;44.78;99315.50;5035727;28;20555;-86
2022/06/01 08:24:48;;;;;;;10.15;6.10;;;;;;;27.20;45.13;99044.22;5035512;28;20399;-86
2022/06/01 08:27:13;;;;;;;8.68;5.50;;;;;;;29.01;43.74;99319.00;5035098;28;20178;-86
2022/06/01 08:29:39;;;;;;;7.45;5.85;;;;;;;27.11;45.61;99193.53;5035208;28;20173;-86
2022/06/01 08:32:05;;;;;;;10.02;5.35;;;;;;;26.66;45.03;98959.16;5025449;28;20264;-85
2022/06/01 08:34:31;;;;;;;7.72;5.57;;;;;;;27.09;44.29;99010.75;5017583;28;20168;-84
2022/06/01 08:36:56;;;;;;;11.15;6.18;;;;;;;27.08;44.42;98970.09;5006512;28;20225;-86
2022/06/01 08:39:22;;;;;;;8.48;6.10;;;;;;;26.44;43.50;98866.31;5025609;28;20203;-86
2022/06/01 08:41:47;;;;;;;11.00;6.43;;;;;;;28.36;43.88;99131.75;5017453;28;20221;-86
2022/06/01 08:44:15;;;;;;;8.25;5.90;;;;;;;29.23;44.15;99317.44;5033469;28;20202;-87
2022/06/01 08:46:41;;;;;;;8.02;5.50;;;;;;;28.53;45.13;99319.63;5034986;28;20209;-86
2022/06/01 08:49:13;;;;;;;16.30;7.85;;;;;;;29.00;44.07;99317.31;5013821;28;20637;-87
2022/06/01 08:51:38;;;;;;;10.15;6.00;;;;;;;27.94;43.86;99060.19;5013987;28;20553;-86
2022/06/01 08:54:04;;;;;;;10.93;5.78;;;;;;;29.16;42.75;99258.56;4996408;28;20183;-85
2022/06/01 08:56:36;;;;;;;9.38;5.13;;;;;;;29.58;42.18;99316.28;5015346;28;20167;-85
2022/06/01 08:59:11;;;;;;;8.85;5.45;;;;;;;30.09;41.89;99317.06;5020835;28;20671;-86
2022/06/01 09:01:45;;;;;;;9.82;5.30;;;;;;;30.19;41.03;99323.63;5033331;28;20706;-86
2022/06/01 09:04:21;;;;;;;9.43;5.30;;;;;;;30.01;40.90;99318.25;5033666;28;20206;-86
2022/06/01 09:06:55;;;;;;;9.30;5.43;;;;;;;30.53;40.49;99317.16;5033602;28;20159;-86
2022/06/01 09:09:30;;;;;;;8.15;5.50;;;;;;;29.34;40.29;99152.78;5033100;28;20248;-85
2022/06/01 09:11:56;;;;;;;8.35;4.78;;;;;;;30.00;39.88;99312.16;5033465;28;20249;-87
2022/06/01 09:14:28;;;;;;;7.13;4.90;;;;;;;30.09;39.46;99269.19;5033448;28;20196;-86
2022/06/01 09:16:59;;;;;;;6.75;4.35;;;;;;;30.65;37.29;99308.88;5033226;28;20660;-86
2022/06/01 09:22:39;;;;;;;7.28;3.63;;;;;;;29.98;36.20;99310.50;4972287;28;20182;-87
2022/06/01 09:25:10;;;;;;;5.80;3.30;;;;;;;29.37;37.14;99311.75;4972320;28;20231;-85
2022/06/01 09:27:41;;;;;;;4.75;2.83;;;;;;;30.08;34.63;99301.44;4972856;28;20171;-87
2022/06/01 09:30:31;;;;;;;6.60;4.45;;;;;;;30.17;37.87;99295.88;4972165;28;20197;-85
2022/06/01 09:33:21;;;;;;;5.82;3.72;;;;;;;29.13;37.47;99194.31;4954830;28;20544;-85
2022/06/01 09:35:58;;;;;;;5.40;3.67;;;;;;;29.39;37.30;99266.50;4952664;29;20205;-84
2022/06/01 09:38:53;;;;;;;7.00;4.30;;;;;;;29.14;39.06;99297.75;4943314;28;20393;-84
2022/06/01 09:41:24;;;;;;;6.03;4.20;;;;;;;29.69;38.24;99294.13;4971815;28;20252;-84
2022/06/01 09:44:05;;;;;;;7.68;4.10;;;;;;;30.45;37.59;99295.72;4975176;28;20329;-85
2022/06/01 09:46:34;;;;;;;7.65;4.35;;;;;;;30.99;37.31;99292.72;4972490;28;20682;-86
2022/06/01 09:49:02;;;;;;;6.25;4.30;;;;;;;31.01;37.52;99288.28;4972022;28;20232;-85
2022/06/01 09:51:31;;;;;;;6.22;3.90;;;;;;;29.58;36.55;99037.06;4972439;28;20362;-85
2022/06/01 09:54:14;;;;;;;7.35;4.63;;;;;;;31.04;38.30;99288.16;4971118;28;20185;-86
2022/06/01 09:56:45;;;;;;;7.90;4.95;;;;;;;30.30;39.07;99273.59;4972512;28;20177;-84
2022/06/01 10:08:11;;;;;;;6.45;4.88;;;;;;;29.90;40.52;99271.63;5036647;28;20169;-84
2022/06/01 10:10:37;;;;;;;6.80;4.88;;;;;;;29.97;39.46;99196.56;5033335;28;20531;-84
2022/06/01 10:13:04;;;;;;;10.68;5.00;;;;;;;30.02;38.42;99169.34;5034589;28;20198;-85
2022/06/01 10:15:42;;;;;;;7.82;4.55;;;;;;;29.57;38.17;99124.06;5035657;28;20214;-84
2022/06/01 10:18:21;;;;;;;5.63;4.35;;;;;;;30.63;37.42;99175.59;5033096;28;20173;-87
2022/06/01 10:21:12;;;;;;;8.05;4.63;;;;;;;31.37;35.46;99268.41;5033734;28;20194;-85
2022/06/01 10:23:47;;;;;;;9.15;4.50;;;;;;;29.41;36.04;98993.38;5032995;28;20231;-85
2022/06/01 10:26:23;;;;;;;9.35;4.10;;;;;;;30.69;36.30;99261.63;5026597;28;20235;-86
2022/06/01 10:28:58;;;;;;;6.28;4.20;;;;;;;31.02;36.00;99264.66;5016364;28;20204;-85
2022/06/01 10:31:34;;;;;;;9.05;4.50;;;;;;;30.76;36.24;99260.47;5013709;28;20197;-87
2022/06/01 10:34:09;;;;;;;7.40;4.15;;;;;;;30.81;35.35;99210.59;4995778;28;20182;-85
2022/06/01 10:36:45;;;;;;;6.53;4.03;;;;;;;30.51;35.94;99107.31;5013053;28;20168;-86
2022/06/01 10:39:21;;;;;;;9.18;5.00;;;;;;;29.27;36.22;99050.44;5014022;28;20173;-86
2022/06/01 10:41:58;;;;;;;5.85;4.25;;;;;;;29.04;35.83;98982.59;4994010;28;20241;-86
2022/06/01 10:44:33;;;;;;;7.57;4.43;;;;;;;30.76;36.92;99268.31;5012679;28;20229;-86
2022/06/01 10:47:46;;;;;;;6.13;3.88;;;;;;;30.38;36.60;99248.91;5012337;28;20662;-86
2022/06/01 10:50:17;;;;;;;6.95;3.92;;;;;;;30.29;36.25;99224.88;5012437;28;20173;-86
2022/06/01 10:52:50;;;;;;;6.50;4.15;;;;;;;30.26;36.82;99155.31;5012408;28;20177;-85
2022/06/01 10:55:25;;;;;;;6.75;4.30;;;;;;;31.19;35.41;99246.50;5012345;28;20178;-85
2022/06/01 10:57:51;;;;;;;6.05;3.97;;;;;;;31.25;35.67;99255.84;5012610;28;20170;-87
2022/06/01 11:00:24;;;;;;;5.95;3.78;;;;;;;30.48;34.64;99139.66;5012836;28;20225;-85
2022/06/01 11:03:20;;;;;;;7.95;3.85;;;;;;;31.59;34.69;99256.13;5012428;28;20172;-85
2022/06/01 11:05:52;;;;;;;6.15;4.35;;;;;;;31.61;33.64;99256.91;5017126;28;20643;-85
2022/06/01 11:08:30;;;;;;;5.50;3.72;;;;;;;31.62;33.32;99255.97;4998099;28;20178;-85
2022/06/01 11:11:22;;;;;;;5.38;3.70;;;;;;;31.77;33.08;99254.47;5012113;28;20174;-85
2022/06/01 11:14:18;;;;;;;5.00;3.70;;;;;;;31.52;32.84;99258.16;5012046;28;20281;-86
2022/06/01 11:16:57;;;;;;;7.25;3.67;;;;;;;31.38;33.69;99188.97;5012380;28;20162;-87
2022/06/01 11:19:50;;;;;;;6.45;3.50;;;;;;;31.84;33.42;99229.69;5012270;28;20698;-86
2022/06/01 11:22:18;;;;;;;5.18;3.40;;;;;;;31.75;32.58;99223.13;5012355;28;20170;-86
2022/06/01 11:25:08;;;;;;;6.25;3.70;;;;;;;31.57;32.85;99230.91;5012304;28;20671;-86
2022/06/01 11:27:56;;;;;;;8.18;3.38;;;;;;;31.45;32.61;99221.84;5012337;28;20265;-87
2022/06/01 11:30:26;;;;;;;3.80;3.40;;;;;;;31.76;31.91;99171.56;5012958;28;20205;-86
2022/06/01 11:33:15;;;;;;;4.30;3.38;;;;;;;32.16;31.00;99149.66;4995620;28;20174;-85
2022/06/01 11:35:44;;;;;;;5.50;3.28;;;;;;;33.26;29.85;99220.22;5013362;28;20198;-86
2022/06/01 11:38:16;;;;;;;4.07;2.72;;;;;;;33.76;28.24;99209.72;5012763;28;20213;-87
2022/06/01 11:41:19;;;;;;;2.85;2.53;;;;;;;34.73;27.05;99222.69;5012549;28;20225;-85
2022/06/01 11:43:52;;;;;;;3.22;2.72;;;;;;;34.69;26.75;99147.53;4933048;29;20237;-86
2022/06/01 11:46:33;;;;;;;4.38;2.60;;;;;;;35.44;25.83;99214.06;4932667;29;20189;-86
2022/06/01 11:49:03;;;;;;;4.22;2.80;;;;;;;35.84;25.17;99151.88;4932999;29;20177;-86
2022/06/01 11:51:37;;;;;;;6.38;3.25;;;;;;;36.37;24.38;99206.44;4932638;29;20252;-86
2022/06/01 11:54:14;;;;;;;5.25;3.00;;;;;;;34.78;24.50;98920.72;4932696;29;20197;-87
2022/06/01 11:56:53;;;;;;;3.92;2.80;;;;;;;36.87;23.84;99212.88;4933258;29;20169;-86
2022/06/01 11:59:27;;;;;;;4.28;2.65;;;;;;;37.14;23.28;99214.53;4917070;29;20189;-85
2022/06/01 12:02:16;;;;;;;4.47;3.00;;;;;;;36.20;25.80;99208.50;4932485;29;20177;-86
2022/06/01 12:04:42;;;;;;;3.65;3.10;;;;;;;37.38;24.41;99209.38;4932778;29;20215;-85
2022/06/01 12:07:13;;;;;;;6.60;3.00;;;;;;;37.23;23.85;99073.09;4932411;29;20193;-86
2022/06/01 12:09:47;;;;;;;4.80;2.80;;;;;;;37.75;24.13;99171.50;4937394;29;20255;-86